createdAt,value
2018-04-22T00:01:59.817Z,99099.78
2018-04-22T00:04:33.411Z,99094.00
2018-04-22T00:07:07.057Z,99093.03
2018-04-22T00:09:40.663Z,99088.52
2018-04-22T00:12:14.244Z,99081.93
2018-04-22T00:14:48.928Z,99087.59
2018-04-22T00:17:23.608Z,99085.66
2018-04-22T00:19:57.413Z,99080.72
2018-04-22T00:22:30.989Z,99080.27
2018-04-22T00:25:04.682Z,99076.50
2018-04-22T00:27:38.459Z,99071.41
2018-04-22T00:30:12.101Z,99068.97
2018-04-22T00:32:45.649Z,99061.59
2018-04-22T00:35:19.308Z,99064.63
2018-04-22T00:37:53.040Z,99055.41
2018-04-22T00:40:26.824Z,99051.59
2018-04-22T00:43:00.512Z,99047.41
2018-04-22T00:45:34.232Z,99033.87
2018-04-22T00:48:08.003Z,99038.38
2018-04-22T00:50:43.784Z,99029.70
2018-04-22T00:53:17.352Z,99030.42
2018-04-22T00:55:51.091Z,99028.42
2018-04-22T00:58:24.692Z,99027.30
2018-04-22T01:00:58.218Z,99022.89
2018-04-22T01:03:31.716Z,99019.55
2018-04-22T01:06:05.241Z,99022.12
2018-04-22T01:08:38.820Z,99017.40
2018-04-22T01:11:12.604Z,99021.16
2018-04-22T01:13:47.144Z,99009.02
2018-04-22T01:16:20.686Z,99010.91
2018-04-22T01:18:54.212Z,99006.73
2018-04-22T01:21:27.944Z,99005.58
2018-04-22T01:24:01.564Z,99001.19
2018-04-22T01:26:35.180Z,98992.96
2018-04-22T01:29:08.935Z,98994.61
2018-04-22T01:31:42.623Z,98996.47
2018-04-22T01:34:16.540Z,98985.05
2018-04-22T01:36:50.140Z,98987.79
2018-04-22T01:39:23.715Z,98984.07
2018-04-22T01:41:57.237Z,98990.55
2018-04-22T01:44:30.897Z,98983.38
2018-04-22T01:47:04.404Z,98986.48
2018-04-22T01:49:38.205Z,98975.72
2018-04-22T01:52:11.852Z,98980.55
2018-04-22T01:54:45.506Z,98976.06
2018-04-22T01:57:19.319Z,98972.44
2018-04-22T01:59:52.939Z,98975.01
2018-04-22T02:02:26.688Z,98964.34
2018-04-22T02:05:00.302Z,98970.49
2018-04-22T02:07:33.939Z,98970.75
2018-04-22T02:10:07.572Z,98963.81
2018-04-22T02:12:41.123Z,98960.66
2018-04-22T02:15:14.828Z,98965.02
2018-04-22T02:17:48.517Z,98958.45
2018-04-22T02:20:22.142Z,98960.88
2018-04-22T02:22:55.914Z,98955.49
2018-04-22T02:25:29.703Z,98958.89
2018-04-22T02:28:03.523Z,98953.06
2018-04-22T02:30:37.224Z,98951.56
2018-04-22T02:33:10.808Z,98951.33
2018-04-22T02:35:44.431Z,98948.89
2018-04-22T02:38:18.099Z,98943.63
2018-04-22T02:40:51.687Z,98943.95
2018-04-22T02:43:25.343Z,98944.25
2018-04-22T02:45:58.925Z,98937.48
2018-04-22T02:48:32.715Z,98935.89
2018-04-22T02:51:06.233Z,98933.05
2018-04-22T02:53:39.897Z,98935.53
2018-04-22T02:56:13.474Z,98927.37
2018-04-22T02:58:47.087Z,98923.97
2018-04-22T03:01:20.580Z,98917.86
2018-04-22T03:03:54.129Z,98920.08
2018-04-22T03:06:27.712Z,98914.54
2018-04-22T03:09:01.236Z,98914.28
2018-04-22T03:11:34.887Z,98907.59
2018-04-22T03:14:08.468Z,98907.81
2018-04-22T03:16:41.995Z,98908.08
2018-04-22T03:19:15.551Z,98903.83
2018-04-22T03:21:49.255Z,98909.09
2018-04-22T03:24:22.756Z,98898.16
2018-04-22T03:26:56.403Z,98896.39
2018-04-22T03:29:30.103Z,98897.02
2018-04-22T03:32:03.690Z,98889.63
2018-04-22T03:34:37.437Z,98887.72
2018-04-22T03:37:11.368Z,98881.59
2018-04-22T03:39:45.117Z,98878.50
2018-04-22T03:42:18.624Z,98881.47
2018-04-22T03:44:52.404Z,98874.27
2018-04-22T03:47:26.024Z,98870.67
2018-04-22T03:49:59.575Z,98874.20
2018-04-22T03:52:33.172Z,98869.87
2018-04-22T03:55:06.992Z,98863.94
2018-04-22T03:57:40.554Z,98862.12
2018-04-22T04:00:14.299Z,98862.17
2018-04-22T04:02:47.960Z,98851.25
2018-04-22T04:05:21.515Z,98852.73
2018-04-22T04:07:55.071Z,98845.62
2018-04-22T04:10:29.119Z,98847.30
2018-04-22T04:13:02.750Z,98847.25
2018-04-22T04:15:36.275Z,98843.31
2018-04-22T04:21:33.895Z,98836.48
2018-04-22T04:27:19.369Z,98840.70
2018-04-22T04:29:53.165Z,98835.24
2018-04-22T04:32:26.840Z,98829.08
2018-04-22T04:35:00.595Z,98825.92
2018-04-22T04:37:34.140Z,98827.79
2018-04-22T04:40:07.707Z,98826.55
2018-04-22T04:42:41.377Z,98825.84
2018-04-22T04:45:14.982Z,98827.41
2018-04-22T04:47:48.576Z,98826.16
2018-04-22T04:50:22.423Z,98826.16
2018-04-22T04:52:56.084Z,98823.67
2018-04-22T04:55:29.783Z,98820.41
2018-04-22T04:58:03.384Z,98821.87
2018-04-22T05:00:37.040Z,98820.23
2018-04-22T05:03:10.788Z,98824.27
2018-04-22T05:05:44.443Z,98825.77
2018-04-22T05:08:17.967Z,98824.58
2018-04-22T05:10:51.520Z,98821.70
2018-04-22T05:13:25.196Z,98821.83
2018-04-22T05:15:59.018Z,98826.22
2018-04-22T05:18:32.801Z,98826.03
2018-04-22T05:21:06.383Z,98826.90
2018-04-22T05:23:40.052Z,98824.20
2018-04-22T05:26:13.584Z,98825.28
2018-04-22T05:28:47.378Z,98818.54
2018-04-22T05:31:20.979Z,98817.89
2018-04-22T05:33:54.511Z,98814.05
2018-04-22T05:36:28.078Z,98812.80
2018-04-22T05:39:01.842Z,98811.61
2018-04-22T05:41:35.395Z,98815.95
2018-04-22T05:44:09.012Z,98813.61
2018-04-22T05:46:42.650Z,98813.00
2018-04-22T05:49:16.217Z,98814.39
2018-04-22T05:51:49.751Z,98811.61
2018-04-22T05:54:23.369Z,98813.66
2018-04-22T05:56:56.899Z,98816.59
2018-04-22T05:59:30.672Z,98807.85
2018-04-22T06:02:04.306Z,98809.17
2018-04-22T06:04:37.816Z,98810.64
2018-04-22T06:07:11.440Z,98798.95
2018-04-22T06:09:45.058Z,98798.50
2018-04-22T06:12:18.808Z,98803.99
2018-04-22T06:14:52.362Z,98800.66
2018-04-22T06:17:26.066Z,98797.39
2018-04-22T06:19:59.705Z,98785.40
2018-04-22T06:22:33.203Z,98786.94
2018-04-22T06:25:06.973Z,98790.27
2018-04-22T06:27:40.570Z,98782.63
2018-04-22T06:30:14.139Z,98776.84
2018-04-22T06:32:47.939Z,98776.52
2018-04-22T06:35:21.652Z,98780.48
2018-04-22T06:37:55.461Z,98786.62
2018-04-22T06:40:29.146Z,98782.42
2018-04-22T06:43:02.908Z,98772.75
2018-04-22T06:45:36.601Z,98771.97
2018-04-22T06:48:10.332Z,98766.96
2018-04-22T06:50:43.923Z,98768.72
2018-04-22T06:53:17.613Z,98770.61
2018-04-22T06:55:51.170Z,98767.46
2018-04-22T06:58:24.752Z,98765.67
2018-04-22T07:00:58.513Z,98769.05
2018-04-22T07:03:32.166Z,98756.89
2018-04-22T07:06:05.660Z,98766.63
2018-04-22T07:08:39.355Z,98770.23
2018-04-22T07:11:13.260Z,98773.94
2018-04-22T07:13:46.792Z,98772.86
2018-04-22T07:16:20.371Z,98775.28
2018-04-22T07:18:54.044Z,98771.44
2018-04-22T07:21:27.836Z,98774.84
2018-04-22T07:24:01.383Z,98775.03
2018-04-22T07:26:34.961Z,98773.81
2018-04-22T07:29:08.648Z,98777.72
2018-04-22T07:31:42.404Z,98784.67
2018-04-22T07:34:15.924Z,98782.32
2018-04-22T07:36:49.733Z,98782.86
2018-04-22T07:39:23.291Z,98777.73
2018-04-22T07:41:57.072Z,98775.52
2018-04-22T07:44:30.716Z,98773.59
2018-04-22T07:47:04.512Z,98776.98
2018-04-22T07:49:38.126Z,98784.07
2018-04-22T07:52:11.883Z,98783.05
2018-04-22T07:54:45.417Z,98775.20
2018-04-22T07:57:19.236Z,98781.23
2018-04-22T07:59:52.952Z,98772.63
2018-04-22T08:02:26.565Z,98771.14
2018-04-22T08:05:00.313Z,98776.05
2018-04-22T08:07:34.058Z,98783.31
2018-04-22T08:10:07.725Z,98777.91
2018-04-22T08:12:41.468Z,98767.77
2018-04-22T08:15:15.257Z,98775.50
2018-04-22T08:17:48.915Z,98769.79
2018-04-22T08:20:22.748Z,98771.17
2018-04-22T08:22:56.376Z,98772.20
2018-04-22T08:25:30.041Z,98771.66
2018-04-22T08:28:03.656Z,98772.55
2018-04-22T08:30:37.255Z,98775.11
2018-04-22T08:33:10.972Z,98768.89
2018-04-22T08:35:44.644Z,98772.61
2018-04-22T08:38:18.290Z,98764.45
2018-04-22T08:40:52.076Z,98761.42
2018-04-22T08:43:25.721Z,98760.45
2018-04-22T08:45:59.312Z,98766.64
2018-04-22T08:48:32.819Z,98763.40
2018-04-22T08:51:06.655Z,98757.27
2018-04-22T08:53:40.399Z,98771.91
2018-04-22T08:56:13.908Z,98754.19
2018-04-22T08:58:47.496Z,98756.05
2018-04-22T09:01:21.394Z,98756.88
2018-04-22T09:03:55.056Z,98766.73
2018-04-22T09:06:28.636Z,98757.89
2018-04-22T09:09:02.400Z,98758.47
2018-04-22T09:11:35.935Z,98761.51
2018-04-22T09:14:09.667Z,98761.75
2018-04-22T09:16:43.595Z,98757.83
2018-04-22T09:19:17.224Z,98766.02
2018-04-22T09:21:50.868Z,98765.28
2018-04-22T09:24:24.521Z,98757.17
2018-04-22T09:26:58.183Z,98755.67
2018-04-22T09:29:31.916Z,98757.89
2018-04-22T09:32:05.507Z,98758.09
2018-04-22T09:34:39.028Z,98751.64
2018-04-22T09:37:12.792Z,98745.52
2018-04-22T09:39:46.392Z,98746.34
2018-04-22T09:42:20.091Z,98750.52
2018-04-22T09:44:53.818Z,98756.02
2018-04-22T09:47:27.340Z,98753.09
2018-04-22T09:50:00.864Z,98757.85
2018-04-22T09:52:34.547Z,98749.89
2018-04-22T09:55:08.185Z,98755.47
2018-04-22T09:57:41.788Z,98747.47
2018-04-22T10:00:20.883Z,98754.25
2018-04-22T10:02:55.463Z,98744.89
2018-04-22T10:05:34.956Z,98740.27
2018-04-22T10:08:08.491Z,98731.98
2018-04-22T10:10:42.128Z,98723.27
2018-04-22T10:13:15.900Z,98737.92
2018-04-22T10:15:49.484Z,98731.91
2018-04-22T10:18:23.270Z,98720.13
2018-04-22T10:20:56.784Z,98710.59
2018-04-22T10:23:30.596Z,98712.11
2018-04-22T10:26:04.211Z,98726.55
2018-04-22T10:28:37.994Z,98717.95
2018-04-22T10:31:11.760Z,98710.72
2018-04-22T10:33:45.348Z,98703.63
2018-04-22T10:36:18.959Z,98702.53
2018-04-22T10:38:52.648Z,98696.83
2018-04-22T10:41:26.248Z,98691.42
2018-04-22T10:43:59.865Z,98685.05
2018-04-22T10:46:33.385Z,98691.09
2018-04-22T10:49:07.172Z,98686.11
2018-04-22T10:51:40.832Z,98696.17
2018-04-22T10:54:14.583Z,98685.98
2018-04-22T10:56:48.383Z,98682.23
2018-04-22T10:59:22.144Z,98676.85
2018-04-22T11:01:56.124Z,98674.77
2018-04-22T11:04:29.647Z,98673.69
2018-04-22T11:07:03.255Z,98669.61
2018-04-22T11:09:36.889Z,98667.59
2018-04-22T11:12:10.555Z,98670.09
2018-04-22T11:14:44.191Z,98656.11
2018-04-22T11:17:17.728Z,98653.61
2018-04-22T11:19:51.219Z,98652.86
2018-04-22T11:22:24.763Z,98645.01
2018-04-22T11:24:58.360Z,98642.03
2018-04-22T11:27:31.975Z,98641.91
2018-04-22T11:30:05.690Z,98642.98
2018-04-22T11:32:40.048Z,98637.20
2018-04-22T11:35:13.583Z,98622.30
2018-04-22T11:37:47.236Z,98623.66
2018-04-22T11:40:21.050Z,98620.66
2018-04-22T11:42:54.631Z,98615.33
2018-04-22T11:45:28.284Z,98611.89
2018-04-22T11:48:01.808Z,98612.44
2018-04-22T11:50:35.334Z,98613.30
2018-04-22T11:53:09.008Z,98613.95
2018-04-22T11:55:42.679Z,98616.27
2018-04-22T11:58:16.236Z,98612.78
2018-04-22T12:00:49.979Z,98614.91
2018-04-22T12:03:23.510Z,98601.02
2018-04-22T12:05:57.193Z,98597.47
2018-04-22T12:08:30.811Z,98586.86
2018-04-22T12:11:04.556Z,98586.16
2018-04-22T12:13:38.091Z,98586.69
2018-04-22T12:16:11.868Z,98576.48
2018-04-22T12:18:45.562Z,98565.86
2018-04-22T12:21:19.366Z,98558.33
2018-04-22T12:23:52.956Z,98558.49
2018-04-22T12:26:26.734Z,98554.47
2018-04-22T12:29:00.393Z,98546.79
2018-04-22T12:31:34.411Z,98534.27
2018-04-22T12:34:08.218Z,98526.17
2018-04-22T12:36:42.008Z,98518.83
2018-04-22T12:39:15.787Z,98514.95
2018-04-22T12:41:49.319Z,98508.83
2018-04-22T12:44:22.904Z,98519.14
2018-04-22T12:46:56.668Z,98525.45
2018-04-22T12:49:30.224Z,98534.29
2018-04-22T12:52:03.964Z,98517.23
2018-04-22T12:57:19.151Z,98498.84
2018-04-22T12:59:52.656Z,98497.56
2018-04-22T13:02:26.419Z,98485.02
2018-04-22T13:05:00.001Z,98503.11
2018-04-22T13:07:33.623Z,98514.86
2018-04-22T13:10:07.181Z,98515.10
2018-04-22T13:12:41.013Z,98520.88
2018-04-22T13:15:14.800Z,98528.45
2018-04-22T13:17:48.518Z,98521.20
2018-04-22T13:20:22.059Z,98514.12
2018-04-22T13:22:55.603Z,98518.38
2018-04-22T13:25:29.388Z,98514.72
2018-04-22T13:28:03.110Z,98512.58
2018-04-22T13:30:36.900Z,98572.97
2018-04-22T13:33:10.441Z,98578.68
2018-04-22T13:35:44.170Z,98612.78
2018-04-22T13:38:17.780Z,98625.32
2018-04-22T13:40:51.331Z,98664.03
2018-04-22T13:43:25.120Z,98612.50
2018-04-22T13:45:58.860Z,124436.63
2018-04-22T13:48:32.527Z,98555.52
2018-04-22T13:51:06.229Z,124436.63
2018-04-22T13:53:39.972Z,124436.63
2018-04-22T13:56:13.763Z,124436.63
2018-04-22T13:58:47.380Z,124436.63
2018-04-22T14:01:21.019Z,124436.63
2018-04-22T14:03:54.814Z,124436.63
2018-04-22T14:06:28.519Z,98537.08
2018-04-22T14:09:02.280Z,98533.48
2018-04-22T14:11:35.956Z,98524.20
2018-04-22T14:14:09.552Z,98504.39
2018-04-22T14:16:43.067Z,98487.09
2018-04-22T14:19:16.556Z,98475.16
2018-04-22T14:21:50.087Z,98469.96
2018-04-22T14:24:23.653Z,98463.48
2018-04-22T14:26:57.202Z,98460.36
2018-04-22T14:29:30.888Z,98459.02
2018-04-22T14:32:04.812Z,98451.22
2018-04-22T14:34:38.604Z,98448.84
2018-04-22T14:43:11.188Z,98442.00
2018-04-22T14:45:56.852Z,98449.91
2018-04-22T14:48:30.473Z,98446.73
2018-04-22T14:51:04.012Z,98445.41
2018-04-22T14:53:37.552Z,98439.95
2018-04-22T14:56:11.332Z,98441.15
2018-04-22T14:58:45.128Z,98443.69
2018-04-22T15:01:18.824Z,98438.84
2018-04-22T15:03:52.536Z,98423.59
2018-04-22T15:06:26.040Z,98432.20
2018-04-22T15:08:59.566Z,98432.59
2018-04-22T15:11:33.376Z,98426.13
2018-04-22T15:14:06.985Z,98426.91
2018-04-22T15:16:40.764Z,98424.55
2018-04-22T15:19:14.356Z,98430.86
2018-04-22T15:21:48.046Z,98447.39
2018-04-22T15:24:21.588Z,98447.00
2018-04-22T15:26:55.351Z,98436.03
2018-04-22T15:29:28.851Z,98420.08
2018-04-22T15:32:02.551Z,98413.34
2018-04-22T15:34:36.231Z,98411.30
2018-04-22T15:37:09.760Z,98412.19
2018-04-22T15:39:43.536Z,98412.35
2018-04-22T15:42:17.103Z,98402.19
2018-04-22T15:44:50.748Z,98408.11
2018-04-22T15:47:24.296Z,98408.02
2018-04-22T15:49:57.991Z,98410.50
2018-04-22T15:52:31.560Z,98408.69
2018-04-22T15:55:05.200Z,98409.20
2018-04-22T15:57:38.708Z,98427.64
2018-04-22T16:00:12.488Z,98432.96
2018-04-22T16:02:46.046Z,98427.03
2018-04-22T16:05:19.724Z,98422.34
2018-04-22T16:07:53.404Z,98413.72
2018-04-22T16:10:27.135Z,98402.87
2018-04-22T16:13:00.760Z,98405.42
2018-04-22T16:15:34.302Z,98407.42
2018-04-22T16:18:08.104Z,98397.95
2018-04-22T16:20:41.711Z,98396.09
2018-04-22T16:23:15.396Z,98393.37
2018-04-22T16:25:49.203Z,98391.53
2018-04-22T16:28:22.880Z,98388.09
2018-04-22T16:30:56.442Z,98390.50
2018-04-22T16:33:30.131Z,98395.02
2018-04-22T16:36:03.655Z,98401.95
2018-04-22T16:38:37.288Z,98404.09
2018-04-22T16:41:10.821Z,98408.15
2018-04-22T16:43:44.571Z,98424.20
2018-04-22T16:46:18.308Z,98415.13
2018-04-22T16:48:52.065Z,98417.83
2018-04-22T16:51:25.688Z,98415.92
2018-04-22T16:53:59.327Z,98412.94
2018-04-22T16:56:32.837Z,98413.56
2018-04-22T16:59:06.384Z,98407.03
2018-04-22T17:01:40.053Z,98415.48
2018-04-22T17:04:13.805Z,98402.79
2018-04-22T17:06:47.368Z,98402.00
2018-04-22T17:09:21.195Z,98401.21
2018-04-22T17:11:54.832Z,98399.70
2018-04-22T17:14:28.650Z,98407.97
2018-04-22T17:17:02.273Z,98394.54
2018-04-22T17:19:35.815Z,98403.61
2018-04-22T17:22:09.456Z,98397.16
2018-04-22T17:24:43.232Z,98400.76
2018-04-22T17:27:16.895Z,98408.54
2018-04-22T17:29:50.715Z,98410.25
2018-04-22T17:32:24.364Z,98411.02
2018-04-22T17:34:58.327Z,98410.48
2018-04-22T17:37:31.971Z,98411.20
2018-04-22T17:40:05.561Z,98415.94
2018-04-22T17:42:39.102Z,98418.09
2018-04-22T17:45:12.938Z,98421.83
2018-04-22T17:47:46.629Z,98412.38
2018-04-22T17:50:20.376Z,98419.25
2018-04-22T17:52:53.918Z,98418.49
2018-04-22T17:55:27.668Z,98420.25
2018-04-22T17:58:01.251Z,98420.84
2018-04-22T18:00:34.923Z,98419.50
2018-04-22T18:03:08.667Z,98424.97
2018-04-22T18:05:42.371Z,98431.06
2018-04-22T18:08:15.914Z,98429.48
2018-04-22T18:10:49.499Z,98436.97
2018-04-22T18:13:23.131Z,98436.66
2018-04-22T18:15:56.859Z,98439.05
2018-04-22T18:18:30.536Z,98438.68
2018-04-22T18:21:04.276Z,98446.84
2018-04-22T18:23:37.956Z,98449.09
2018-04-22T18:26:11.773Z,98458.33
2018-04-22T18:28:45.319Z,98457.16
2018-04-22T18:31:18.956Z,98460.73
2018-04-22T18:33:52.677Z,98462.72
2018-04-22T18:36:26.287Z,98458.97
2018-04-22T18:38:59.799Z,98464.84
2018-04-22T18:41:33.315Z,98469.97
2018-04-22T18:44:07.060Z,98479.23
2018-04-22T18:46:40.684Z,98477.69
2018-04-22T18:49:14.352Z,98477.84
2018-04-22T18:51:47.972Z,98485.75
2018-04-22T18:54:21.596Z,98489.09
2018-04-22T18:56:55.205Z,98489.89
2018-04-22T18:59:29.032Z,98496.97
2018-04-22T19:02:02.565Z,98496.00
2018-04-22T19:04:36.196Z,98502.30
2018-04-22T19:10:08.555Z,98506.44
2018-04-22T19:12:42.172Z,98504.09
2018-04-22T19:15:15.723Z,98510.27
2018-04-22T19:17:49.284Z,98513.61
2018-04-22T19:20:23.042Z,98516.98
2018-04-22T19:22:56.688Z,98519.10
2018-04-22T19:25:30.309Z,98515.20
2018-04-22T19:28:03.860Z,98520.28
2018-04-22T19:30:37.639Z,98526.64
2018-04-22T19:33:11.296Z,98525.08
2018-04-22T19:35:45.048Z,98529.03
2018-04-22T19:38:18.884Z,98540.88
2018-04-22T19:40:52.664Z,98542.47
2018-04-22T19:43:26.241Z,98545.63
2018-04-22T19:46:00.084Z,98549.44
2018-04-22T19:48:33.792Z,98555.36
2018-04-22T19:51:07.353Z,98558.85
2018-04-22T19:53:40.933Z,98563.97
2018-04-22T19:56:14.556Z,98558.23
2018-04-22T19:58:48.212Z,98561.98
2018-04-22T20:01:21.972Z,98566.68
2018-04-22T20:03:55.642Z,98564.50
2018-04-22T20:06:29.312Z,98571.59
2018-04-22T20:09:03.072Z,98577.30
2018-04-22T20:11:36.741Z,98578.06
2018-04-22T20:14:10.332Z,98579.75
2018-04-22T20:16:44.231Z,98579.08
2018-04-22T20:19:17.878Z,98577.05
2018-04-22T20:21:51.489Z,98586.98
2018-04-22T20:24:25.245Z,98593.31
2018-04-22T20:26:58.970Z,98594.09
2018-04-22T20:29:32.529Z,98596.08
2018-04-22T20:32:06.433Z,98601.95
2018-04-22T20:34:40.039Z,98599.81
2018-04-22T20:37:13.660Z,98591.73
2018-04-22T20:39:47.411Z,98599.77
2018-04-22T20:42:21.084Z,98597.09
2018-04-22T20:44:54.716Z,98604.47
2018-04-22T20:47:28.421Z,98594.84
2018-04-22T20:50:01.966Z,98598.50
2018-04-22T20:52:35.512Z,98598.86
2018-04-22T20:55:09.419Z,98598.76
2018-04-22T20:57:43.142Z,98600.81
2018-04-22T21:00:16.843Z,98607.59
2018-04-22T21:02:50.500Z,98602.22
2018-04-22T21:05:24.962Z,98603.55
2018-04-22T21:07:58.671Z,98606.20
2018-04-22T21:10:32.316Z,98603.75
2018-04-22T21:13:06.027Z,98605.74
2018-04-22T21:15:39.689Z,98604.45
2018-04-22T21:18:13.348Z,98609.41
2018-04-22T21:20:47.062Z,98602.98
2018-04-22T21:23:20.808Z,98604.80
2018-04-22T21:25:54.593Z,98605.94
2018-04-22T21:28:28.311Z,98604.92
2018-04-22T21:31:02.037Z,98601.33
2018-04-22T21:33:35.759Z,98603.59
2018-04-22T21:36:09.377Z,98611.75
2018-04-22T21:38:43.101Z,98609.04
2018-04-22T21:41:16.868Z,98603.41
2018-04-22T21:43:50.553Z,98601.27
2018-04-22T21:46:24.261Z,98593.68
2018-04-22T21:48:57.923Z,98594.30
2018-04-22T21:51:31.642Z,98602.53
2018-04-22T21:54:05.369Z,98608.22
2018-04-22T21:56:38.949Z,98608.06
2018-04-22T21:59:12.641Z,98597.30
2018-04-22T22:01:46.349Z,98606.55
2018-04-22T22:04:20.113Z,98602.42
2018-04-22T22:06:53.747Z,98603.36
2018-04-22T22:09:27.432Z,98600.77
2018-04-22T22:12:01.217Z,98594.55
2018-04-22T22:14:34.821Z,98593.64
2018-04-22T22:17:08.567Z,98598.45
2018-04-22T22:19:42.188Z,98592.22
2018-04-22T22:22:15.905Z,98608.75
2018-04-22T22:24:49.810Z,98607.19
2018-04-22T22:27:23.457Z,98605.62
2018-04-22T22:29:57.116Z,98605.16
2018-04-22T22:32:30.852Z,98596.27
2018-04-22T22:35:04.521Z,98593.93
2018-04-22T22:37:38.256Z,98595.63
2018-04-22T22:40:11.865Z,98587.16
2018-04-22T22:42:45.407Z,98590.53
2018-04-22T22:45:19.226Z,98588.44
2018-04-22T22:47:53.098Z,98590.70
2018-04-22T22:50:26.701Z,98587.25
2018-04-22T22:53:00.323Z,98580.67
2018-04-22T22:55:33.919Z,98577.55
2018-04-22T22:58:07.645Z,98562.90
2018-04-22T23:00:41.358Z,98570.13
2018-04-22T23:03:14.905Z,98571.59
2018-04-22T23:05:48.557Z,98577.94
2018-04-22T23:08:22.360Z,98578.10
2018-04-22T23:10:56.204Z,98584.04
2018-04-22T23:13:29.846Z,98580.20
2018-04-22T23:16:03.939Z,98589.30
2018-04-22T23:18:37.679Z,98584.85
2018-04-22T23:21:11.295Z,98576.64
2018-04-22T23:23:45.027Z,98572.19
2018-04-22T23:26:18.633Z,98574.56
2018-04-22T23:28:52.356Z,98572.60
2018-04-22T23:31:25.944Z,98570.47
2018-04-22T23:33:59.564Z,98573.30
2018-04-22T23:36:33.339Z,98571.07
2018-04-22T23:39:06.900Z,98568.72
2018-04-22T23:41:40.610Z,98572.13
2018-04-22T23:44:14.193Z,98570.48
2018-04-22T23:46:47.913Z,98570.16
2018-04-22T23:49:21.473Z,98571.06
2018-04-22T23:51:54.974Z,98580.33
2018-04-22T23:54:28.592Z,98584.14
2018-04-22T23:57:02.166Z,98589.92
2018-04-22T23:59:35.816Z,98604.23
